createdAt,value
2022-09-07T00:00:31.825Z,0
2022-09-07T00:01:31.826Z,0
2022-09-07T00:02:31.901Z,0
2022-09-07T00:03:31.893Z,0
2022-09-07T00:04:31.904Z,0
2022-09-07T00:05:31.855Z,0
2022-09-07T00:06:31.820Z,0
2022-09-07T00:07:31.844Z,0
2022-09-07T00:08:31.920Z,0
2022-09-07T00:09:31.837Z,0
2022-09-07T00:10:31.811Z,0
2022-09-07T00:11:31.828Z,0
2022-09-07T00:12:31.829Z,0
2022-09-07T00:13:31.825Z,0
2022-09-07T00:14:31.826Z,0
2022-09-07T00:15:31.817Z,0
2022-09-07T00:16:31.930Z,0
2022-09-07T00:17:31.828Z,0
2022-09-07T00:18:31.871Z,0
2022-09-07T00:19:31.916Z,0
2022-09-07T00:20:31.995Z,0
2022-09-07T00:21:31.818Z,0
2022-09-07T00:22:31.792Z,0
2022-09-07T00:23:31.839Z,0
2022-09-07T00:24:31.808Z,0
2022-09-07T00:25:32.219Z,0
2022-09-07T00:26:31.827Z,0
2022-09-07T00:27:31.901Z,0
2022-09-07T00:28:32.042Z,0
2022-09-07T00:29:31.832Z,0
2022-09-07T00:30:31.789Z,0
2022-09-07T00:31:31.864Z,0
2022-09-07T00:32:31.825Z,0
2022-09-07T00:33:31.827Z,0
2022-09-07T00:34:31.803Z,0
2022-09-07T00:35:31.848Z,0
2022-09-07T00:36:31.846Z,0
2022-09-07T00:37:31.823Z,0
2022-09-07T00:38:32.036Z,0
2022-09-07T00:39:31.876Z,0
2022-09-07T00:40:31.841Z,0
2022-09-07T00:41:31.829Z,0
2022-09-07T00:42:31.805Z,0
2022-09-07T00:43:31.821Z,0
2022-09-07T00:44:31.835Z,0
2022-09-07T00:45:31.854Z,0
2022-09-07T00:46:32.004Z,0
2022-09-07T00:47:31.812Z,0
2022-09-07T00:48:31.925Z,0
2022-09-07T00:49:31.907Z,0
2022-09-07T00:50:31.807Z,0
2022-09-07T00:51:31.811Z,0
2022-09-07T00:52:31.830Z,0
2022-09-07T00:53:31.821Z,0
2022-09-07T00:54:31.819Z,0
2022-09-07T00:55:31.831Z,0
2022-09-07T00:56:31.849Z,0
2022-09-07T00:57:31.812Z,0
2022-09-07T00:58:31.877Z,0
2022-09-07T00:59:31.803Z,0
2022-09-07T01:00:31.824Z,0
2022-09-07T01:01:31.948Z,0
2022-09-07T01:02:31.886Z,0
2022-09-07T01:03:31.829Z,0
2022-09-07T01:04:31.845Z,0
2022-09-07T01:05:31.775Z,0
2022-09-07T01:06:31.834Z,0
2022-09-07T01:07:31.837Z,0
2022-09-07T01:08:32.061Z,0
2022-09-07T01:09:31.912Z,0
2022-09-07T01:10:31.822Z,0
2022-09-07T01:11:31.827Z,0
2022-09-07T01:12:31.844Z,0
2022-09-07T01:13:31.797Z,0
2022-09-07T01:14:31.882Z,0
2022-09-07T01:15:31.861Z,0
2022-09-07T01:16:31.814Z,0
2022-09-07T01:17:31.796Z,0
2022-09-07T01:18:32.017Z,0
2022-09-07T01:19:31.799Z,0
2022-09-07T01:20:31.774Z,0
2022-09-07T01:21:31.810Z,0
2022-09-07T01:22:31.857Z,0
2022-09-07T01:23:31.873Z,0
2022-09-07T01:24:31.824Z,0
2022-09-07T01:25:31.852Z,0
2022-09-07T01:26:31.805Z,0
2022-09-07T01:27:31.815Z,0
2022-09-07T01:28:31.996Z,0
2022-09-07T01:29:31.817Z,0
2022-09-07T01:30:31.808Z,0
2022-09-07T01:31:31.909Z,0
2022-09-07T01:32:31.838Z,0
2022-09-07T01:33:31.794Z,0
2022-09-07T01:34:31.825Z,0
2022-09-07T01:35:31.822Z,0
2022-09-07T01:36:31.786Z,0
2022-09-07T01:37:31.791Z,0
2022-09-07T01:38:32.046Z,0
2022-09-07T01:39:31.875Z,0
2022-09-07T01:40:31.947Z,0
2022-09-07T01:41:31.919Z,0
2022-09-07T01:42:32.023Z,0
2022-09-07T01:43:31.966Z,0
2022-09-07T01:44:31.924Z,0
2022-09-07T01:45:31.935Z,0
2022-09-07T01:46:32.035Z,0
2022-09-07T01:47:31.994Z,0
2022-09-07T01:48:31.881Z,0
2022-09-07T01:49:31.803Z,0
2022-09-07T01:50:31.815Z,0
2022-09-07T01:51:31.809Z,0
2022-09-07T01:52:31.750Z,0
2022-09-07T01:53:31.815Z,0
2022-09-07T01:54:31.804Z,0
2022-09-07T01:55:31.852Z,0
2022-09-07T01:56:31.793Z,0
2022-09-07T01:57:31.772Z,0
2022-09-07T01:58:32.025Z,0
2022-09-07T01:59:31.972Z,0
2022-09-07T02:00:31.799Z,0
2022-09-07T02:01:31.834Z,0
2022-09-07T02:02:31.865Z,0
2022-09-07T02:03:31.817Z,0
2022-09-07T02:04:31.783Z,0
2022-09-07T02:05:31.817Z,0
2022-09-07T02:06:31.804Z,0
2022-09-07T02:07:31.858Z,0
2022-09-07T02:08:31.965Z,0
2022-09-07T02:09:31.821Z,0
2022-09-07T02:10:31.776Z,0
2022-09-07T02:11:31.813Z,0
2022-09-07T02:12:31.779Z,0
2022-09-07T02:13:31.821Z,0
2022-09-07T02:14:31.803Z,0
2022-09-07T02:15:31.835Z,0
2022-09-07T02:16:31.739Z,0
2022-09-07T02:17:31.799Z,0
2022-09-07T02:18:31.890Z,0
2022-09-07T02:19:31.800Z,0
2022-09-07T02:20:31.724Z,0
2022-09-07T02:21:31.822Z,0
2022-09-07T02:22:31.794Z,0
2022-09-07T02:23:31.842Z,0
2022-09-07T02:24:31.735Z,0
2022-09-07T02:25:31.820Z,0
2022-09-07T02:26:31.796Z,0
2022-09-07T02:27:31.898Z,0
2022-09-07T02:28:31.978Z,0
2022-09-07T02:29:31.809Z,0
2022-09-07T02:30:31.790Z,0
2022-09-07T02:31:31.874Z,0
2022-09-07T02:32:31.745Z,0
2022-09-07T02:33:31.803Z,0
2022-09-07T02:34:31.823Z,0
2022-09-07T02:35:31.802Z,0
2022-09-07T02:36:31.720Z,0
2022-09-07T02:37:31.820Z,0
2022-09-07T02:38:32.044Z,0
2022-09-07T02:39:31.892Z,0
2022-09-07T02:40:31.702Z,0
2022-09-07T02:41:31.821Z,0
2022-09-07T02:42:31.784Z,0
2022-09-07T02:43:31.834Z,0
2022-09-07T02:44:31.880Z,0
2022-09-07T02:45:31.830Z,0
2022-09-07T02:46:31.990Z,0
2022-09-07T02:47:31.802Z,0
2022-09-07T02:48:31.800Z,0
2022-09-07T02:49:31.820Z,0
2022-09-07T02:50:31.827Z,0
2022-09-07T02:51:31.795Z,0
2022-09-07T02:52:31.753Z,0
2022-09-07T02:53:31.810Z,0
2022-09-07T02:54:31.806Z,0
2022-09-07T02:55:31.812Z,0
2022-09-07T02:56:31.668Z,0
2022-09-07T02:57:31.803Z,0
2022-09-07T02:58:31.948Z,0
2022-09-07T02:59:31.888Z,0
2022-09-07T03:00:31.683Z,0
2022-09-07T03:01:31.899Z,0
2022-09-07T03:02:32.029Z,0
2022-09-07T03:03:31.767Z,0
2022-09-07T03:04:31.763Z,0
2022-09-07T03:05:31.980Z,0
2022-09-07T03:06:31.869Z,0
2022-09-07T03:07:34.617Z,0
2022-09-07T03:08:31.853Z,0
2022-09-07T03:09:31.799Z,0
2022-09-07T03:10:31.940Z,0
2022-09-07T03:11:31.965Z,0
2022-09-07T03:12:31.825Z,0
2022-09-07T03:13:31.965Z,0
2022-09-07T03:14:31.928Z,0
2022-09-07T03:15:31.997Z,0
2022-09-07T03:16:31.769Z,0
2022-09-07T03:17:31.905Z,0
2022-09-07T03:18:32.124Z,0
2022-09-07T03:19:31.929Z,0
2022-09-07T03:20:31.752Z,0
2022-09-07T03:21:31.969Z,0
2022-09-07T03:22:31.883Z,0
2022-09-07T03:23:31.821Z,0
2022-09-07T03:24:31.718Z,0
2022-09-07T03:25:31.929Z,0
2022-09-07T03:26:31.823Z,0
2022-09-07T03:27:31.924Z,0
2022-09-07T03:28:31.831Z,0
2022-09-07T03:29:32.036Z,0
2022-09-07T03:30:31.851Z,0
2022-09-07T03:31:31.787Z,0
2022-09-07T03:32:31.662Z,0
2022-09-07T03:33:31.804Z,0
2022-09-07T03:34:31.801Z,0
2022-09-07T03:35:31.786Z,0
2022-09-07T03:36:31.671Z,0
2022-09-07T03:37:31.801Z,0
2022-09-07T03:38:31.953Z,0
2022-09-07T03:39:31.827Z,0
2022-09-07T03:40:31.714Z,0
2022-09-07T03:41:31.975Z,0
2022-09-07T03:42:31.916Z,0
2022-09-07T03:43:31.808Z,0
2022-09-07T03:44:31.609Z,0
2022-09-07T03:45:31.816Z,0
2022-09-07T03:46:31.848Z,0
2022-09-07T03:47:31.783Z,0
2022-09-07T03:48:31.788Z,0
2022-09-07T03:49:31.801Z,0
2022-09-07T03:50:31.802Z,0
2022-09-07T03:51:31.775Z,0
2022-09-07T03:52:31.614Z,0
2022-09-07T03:53:31.799Z,0
2022-09-07T03:54:31.807Z,0
2022-09-07T03:55:31.818Z,0
2022-09-07T03:56:31.718Z,0
2022-09-07T03:57:31.787Z,0
2022-09-07T03:58:31.970Z,0
2022-09-07T03:59:31.785Z,0
2022-09-07T04:00:31.640Z,0
2022-09-07T04:01:31.903Z,0
2022-09-07T04:02:31.946Z,0
2022-09-07T04:03:31.823Z,0
2022-09-07T04:04:31.675Z,0
2022-09-07T04:05:31.811Z,0
2022-09-07T04:06:31.776Z,0.36
2022-09-07T04:07:31.799Z,0.36
2022-09-07T04:08:31.810Z,0
2022-09-07T04:09:31.823Z,0
2022-09-07T04:10:31.773Z,0.85
2022-09-07T04:11:31.790Z,0
2022-09-07T04:12:31.596Z,0.36
2022-09-07T04:13:31.811Z,0.36
2022-09-07T04:14:31.829Z,0.85
2022-09-07T04:15:31.831Z,1.22
2022-09-07T04:16:31.792Z,1.71
2022-09-07T04:17:31.801Z,1.71
2022-09-07T04:18:31.965Z,1.71
2022-09-07T04:19:31.812Z,2.08
2022-09-07T04:20:31.595Z,2.08
2022-09-07T04:21:31.809Z,1.71
2022-09-07T04:22:31.851Z,2.08
2022-09-07T04:23:31.867Z,3.43
2022-09-07T04:24:31.580Z,2.94
2022-09-07T04:25:31.832Z,2.94
2022-09-07T04:26:31.800Z,2.57
2022-09-07T04:27:31.811Z,3.43
2022-09-07T04:28:31.741Z,3.43
2022-09-07T04:29:31.890Z,3.79
2022-09-07T04:30:31.832Z,3.79
2022-09-07T04:31:31.784Z,3.43
2022-09-07T04:32:31.614Z,3.79
2022-09-07T04:33:31.794Z,4.28
2022-09-07T04:34:32.001Z,4.28
2022-09-07T04:35:31.802Z,4.28
2022-09-07T04:36:31.592Z,5.14
2022-09-07T04:37:31.886Z,5.14
2022-09-07T04:38:31.973Z,5.63
2022-09-07T04:39:31.874Z,5.99
2022-09-07T04:40:31.562Z,5.63
2022-09-07T04:41:31.895Z,6.85
2022-09-07T04:42:31.868Z,6.85
2022-09-07T04:43:31.953Z,7.34
2022-09-07T04:44:31.553Z,7.34
2022-09-07T04:45:31.783Z,6.85
2022-09-07T04:46:31.789Z,7.7
2022-09-07T04:47:31.800Z,7.34
2022-09-07T04:48:31.831Z,7.7
2022-09-07T04:49:31.801Z,8.19
2022-09-07T04:50:31.899Z,9.54
2022-09-07T04:51:31.823Z,9.54
2022-09-07T04:52:31.579Z,10.39
2022-09-07T04:53:31.788Z,10.77
2022-09-07T04:54:31.764Z,10.39
2022-09-07T04:55:31.806Z,9.54
2022-09-07T04:56:31.721Z,9.54
2022-09-07T04:57:31.835Z,9.91
2022-09-07T04:58:31.967Z,12.11
2022-09-07T04:59:31.809Z,11.62
2022-09-07T05:00:31.535Z,10.77
2022-09-07T05:01:31.973Z,10.39
2022-09-07T05:02:31.860Z,10.39
2022-09-07T05:03:31.812Z,10.39
2022-09-07T05:04:31.486Z,10.77
2022-09-07T05:05:31.835Z,10.39
2022-09-07T05:06:31.813Z,11.25
2022-09-07T05:07:31.792Z,11.62
2022-09-07T05:08:31.645Z,12.11
2022-09-07T05:09:31.783Z,12.97
2022-09-07T05:10:31.817Z,12.48
2022-09-07T05:11:31.862Z,12.11
2022-09-07T05:12:31.497Z,12.48
2022-09-07T05:13:31.790Z,12.97
2022-09-07T05:14:31.792Z,13.33
2022-09-07T05:15:32.033Z,13.33
2022-09-07T05:16:31.622Z,13.33
2022-09-07T05:17:31.803Z,13.82
2022-09-07T05:18:31.909Z,13.82
2022-09-07T05:19:31.795Z,13.82
2022-09-07T05:20:31.533Z,14.68
2022-09-07T05:21:31.822Z,16.88
2022-09-07T05:22:31.770Z,16.39
2022-09-07T05:23:31.808Z,17.25
2022-09-07T05:24:31.511Z,20.8
2022-09-07T05:25:31.781Z,21.16
2022-09-07T05:26:31.796Z,20.31
2022-09-07T05:27:31.770Z,19.94
2022-09-07T05:28:31.902Z,18.6
2022-09-07T05:30:01.283Z,17.73
2022-09-07T05:31:31.896Z,19.08
2022-09-07T05:32:31.460Z,20.31
2022-09-07T05:34:32.393Z,18.11
2022-09-07T05:35:31.792Z,19.08
2022-09-07T05:36:31.462Z,19.08
2022-09-07T05:37:31.769Z,19.08
2022-09-07T05:38:31.822Z,19.08
2022-09-07T05:39:31.846Z,20.31
2022-09-07T05:40:31.503Z,20.8
2022-09-07T05:41:31.809Z,21.16
2022-09-07T05:42:31.800Z,20.31
2022-09-07T05:43:31.894Z,21.16
2022-09-07T05:44:46.417Z,22.02
2022-09-07T05:45:31.801Z,23.85
2022-09-07T05:46:31.953Z,31.19
2022-09-07T05:47:31.788Z,28.14
2022-09-07T05:48:31.556Z,22.02
2022-09-07T05:49:31.932Z,25.07
2022-09-07T05:50:31.948Z,26.79
2022-09-07T05:51:31.814Z,29.85
2022-09-07T05:52:31.467Z,35.11
2022-09-07T05:53:31.936Z,46.36
2022-09-07T05:54:31.798Z,44.16
2022-09-07T05:55:31.795Z,38.53
2022-09-07T05:56:31.584Z,36.82
2022-09-07T05:57:31.773Z,23.85
2022-09-07T05:58:32.016Z,24.71
2022-09-07T05:59:31.819Z,24.71
2022-09-07T06:00:31.520Z,26.42
2022-09-07T06:01:31.786Z,27.28
2022-09-07T06:02:33.692Z,25.07
2022-09-07T06:03:31.859Z,25.94
2022-09-07T06:04:31.517Z,25.94
2022-09-07T06:05:31.788Z,25.94
2022-09-07T06:06:31.812Z,25.94
2022-09-07T06:07:31.764Z,25.94
2022-09-07T06:08:31.521Z,25.94
2022-09-07T06:09:31.792Z,27.28
2022-09-07T06:10:45.959Z,25.56
2022-09-07T06:11:31.804Z,25.94
2022-09-07T06:12:31.493Z,25.56
2022-09-07T06:13:32.056Z,30.7
2022-09-07T06:14:31.778Z,26.79
2022-09-07T06:15:31.774Z,34.25
2022-09-07T06:16:31.517Z,36.33
2022-09-07T06:17:31.821Z,39.39
2022-09-07T06:18:31.801Z,30.34
2022-09-07T06:19:31.761Z,25.56
2022-09-07T06:20:31.447Z,25.94
2022-09-07T06:21:31.812Z,25.07
2022-09-07T06:22:31.806Z,25.94
2022-09-07T06:23:31.891Z,26.42
2022-09-07T06:24:31.415Z,26.42
2022-09-07T06:25:31.798Z,28.99
2022-09-07T06:26:31.786Z,35.48
2022-09-07T06:27:31.768Z,35.11
2022-09-07T06:28:31.483Z,26.79
2022-09-07T06:29:31.915Z,25.56
2022-09-07T06:30:31.797Z,30.34
2022-09-07T06:31:31.977Z,40.73
2022-09-07T06:32:45.439Z,49.79
2022-09-07T06:33:31.939Z,64.1
2022-09-07T06:34:31.805Z,74.14
2022-09-07T06:35:31.897Z,75.48
2022-09-07T06:36:31.429Z,71.93
2022-09-07T06:37:31.798Z,67.65
2022-09-07T06:38:32.057Z,46.73
2022-09-07T06:39:31.869Z,32.9
2022-09-07T06:40:31.422Z,30.34
2022-09-07T06:41:59.549Z,28.63
2022-09-07T06:42:31.822Z,28.99
2022-09-07T06:43:31.890Z,29.85
2022-09-07T06:44:31.590Z,27.28
2022-09-07T06:45:31.914Z,27.65
2022-09-07T06:47:31.979Z,28.63
2022-09-07T06:48:31.557Z,28.14
2022-09-07T06:49:31.799Z,28.99
2022-09-07T06:50:31.787Z,46.73
2022-09-07T06:51:31.868Z,34.25
2022-09-07T06:54:59.955Z,71.56
2022-09-07T06:55:31.824Z,45.51
2022-09-07T06:56:31.426Z,61.17
2022-09-07T06:57:31.795Z,31.56
2022-09-07T06:58:31.924Z,33.76
2022-09-07T06:59:31.788Z,35.11
2022-09-07T07:00:35.391Z,36.33
2022-09-07T07:01:31.901Z,32.42
2022-09-07T07:02:31.798Z,34.62
2022-09-07T07:03:31.928Z,36.33
2022-09-07T07:04:33.270Z,47.22
2022-09-07T07:05:31.802Z,39.88
2022-09-07T07:06:31.767Z,35.48
2022-09-07T07:07:31.805Z,33.76
2022-09-07T07:08:31.802Z,32.05
2022-09-07T07:09:31.784Z,32.9
2022-09-07T07:10:31.760Z,42.94
2022-09-07T07:11:31.778Z,52.48
2022-09-07T07:13:31.846Z,45.87
2022-09-07T07:14:34.371Z,49.79
2022-09-07T07:15:31.795Z,41.1
2022-09-07T07:16:31.666Z,85.02
2022-09-07T07:17:31.782Z,67.65
2022-09-07T07:18:32.096Z,110.1
2022-09-07T07:19:31.762Z,214.7
2022-09-07T07:20:31.352Z,180.44
2022-09-07T07:21:48.563Z,101.05
2022-09-07T07:22:46.509Z,123.19
2022-09-07T07:23:31.977Z,227.66
2022-09-07T07:24:31.322Z,257.64
2022-09-07T07:25:31.754Z,279.29
2022-09-07T07:26:31.761Z,247.61
2022-09-07T07:27:31.796Z,294.46
2022-09-07T07:29:02.145Z,299.23
2022-09-07T07:29:31.825Z,298.86
2022-09-07T07:30:31.745Z,293.24
2022-09-07T07:31:31.797Z,317.46
2022-09-07T07:32:31.338Z,315.75
2022-09-07T07:33:32.016Z,314.03
2022-09-07T07:34:31.855Z,313.54
2022-09-07T07:35:31.774Z,317.46
2022-09-07T07:36:31.345Z,332.27
2022-09-07T07:37:31.773Z,339.61
2022-09-07T07:39:00.496Z,343.03
2022-09-07T07:40:32.555Z,353.55
2022-09-07T07:41:57.563Z,355.63
2022-09-07T07:42:31.803Z,359.18
2022-09-07T07:43:31.906Z,361.25
2022-09-07T07:44:31.308Z,359.54
2022-09-07T07:45:55.644Z,356.12
2022-09-07T07:46:31.860Z,353.55
2022-09-07T07:47:31.769Z,352.57
2022-09-07T07:48:31.369Z,349.64
2022-09-07T07:49:31.766Z,346.57
2022-09-07T07:50:32.665Z,342.17
2022-09-07T07:52:49.441Z,337.4
2022-09-07T07:53:40.848Z,337.03
2022-09-07T07:53:42.899Z,336.54
2022-09-07T07:54:31.771Z,334.47
2022-09-07T07:55:44.530Z,336.18
2022-09-07T07:56:31.295Z,340.09
2022-09-07T07:57:31.806Z,343.52
2022-09-07T07:58:31.756Z,349.64
2022-09-07T07:59:31.782Z,356.49
2022-09-07T08:00:52.954Z,363.95
2022-09-07T08:01:31.934Z,373.49
2022-09-07T08:02:31.769Z,382.54
2022-09-07T08:03:31.841Z,388.17
2022-09-07T08:04:31.288Z,392.57
2022-09-07T08:05:31.768Z,397.35
2022-09-07T08:06:31.793Z,401.26
2022-09-07T08:07:31.742Z,420.35
2022-09-07T08:08:31.279Z,407.25
2022-09-07T08:09:31.894Z,406.4
2022-09-07T08:10:31.782Z,407.25
2022-09-07T08:11:31.741Z,406.89
2022-09-07T08:12:31.237Z,405.18
2022-09-07T08:13:31.891Z,408.97
2022-09-07T08:14:31.943Z,412.03
2022-09-07T08:15:31.754Z,412.03
2022-09-07T08:16:31.287Z,414.23
2022-09-07T08:17:31.797Z,415.57
2022-09-07T08:18:31.753Z,415.08
2022-09-07T08:19:31.771Z,416.43
2022-09-07T08:20:31.296Z,419
2022-09-07T08:21:32.016Z,421.57
2022-09-07T08:22:34.766Z,422.91
2022-09-07T08:23:31.835Z,424.63
2022-09-07T08:24:31.278Z,427.69
2022-09-07T08:25:32.350Z,430.25
2022-09-07T08:26:31.762Z,434.66
2022-09-07T08:27:31.778Z,435.88
2022-09-07T08:28:31.254Z,439.79
2022-09-07T08:29:34.586Z,445.91
2022-09-07T08:30:31.759Z,451.05
2022-09-07T08:31:31.792Z,454.11
2022-09-07T08:32:31.226Z,457.17
2022-09-07T08:33:31.854Z,457.17
2022-09-07T08:34:31.794Z,459.74
2022-09-07T08:35:31.760Z,461.57
2022-09-07T08:36:31.261Z,457.66
2022-09-07T08:37:31.877Z,455.82
2022-09-07T08:38:31.777Z,459.37
2022-09-07T08:39:31.791Z,444.2
2022-09-07T08:40:31.238Z,439.79
2022-09-07T08:41:31.886Z,442.49
2022-09-07T08:42:31.778Z,452.4
2022-09-07T08:43:31.825Z,457.66
2022-09-07T08:44:31.221Z,461.94
2022-09-07T08:45:31.777Z,465.86
2022-09-07T08:46:31.812Z,468.06
2022-09-07T08:47:31.753Z,469.28
2022-09-07T08:48:31.183Z,468.91
2022-09-07T08:49:31.754Z,470.62
2022-09-07T08:50:31.803Z,474.05
2022-09-07T08:51:31.775Z,507.45
2022-09-07T08:52:31.225Z,474.54
2022-09-07T08:53:32.012Z,479.31
2022-09-07T08:54:31.785Z,483.59
2022-09-07T08:55:31.724Z,477.96
2022-09-07T08:56:33.828Z,463.65
2022-09-07T08:57:31.805Z,236.84
2022-09-07T08:58:48.653Z,442
2022-09-07T08:59:31.826Z,402.12
2022-09-07T09:00:31.194Z,439.79
2022-09-07T09:01:32.382Z,210.78
2022-09-07T09:02:36.518Z,240.76
2022-09-07T09:03:32.457Z,170.05
2022-09-07T09:04:32.145Z,271.46
2022-09-07T09:05:31.906Z,206.01
2022-09-07T09:06:31.970Z,263.76
2022-09-07T09:07:31.759Z,72.79
2022-09-07T09:08:31.201Z,300.09
2022-09-07T09:09:31.759Z,384.74
2022-09-07T09:10:31.764Z,401.63
2022-09-07T09:11:31.751Z,443.71
2022-09-07T09:12:35.518Z,423.28
2022-09-07T09:13:31.915Z,435.88
2022-09-07T09:14:31.780Z,235.98
2022-09-07T09:15:31.802Z,180.44
2022-09-07T09:16:31.185Z,401.26
2022-09-07T09:17:31.772Z,182.15
2022-09-07T09:18:31.847Z,251.52
2022-09-07T09:19:31.760Z,141.42
2022-09-07T09:20:31.160Z,287.12
2022-09-07T09:21:31.747Z,366.03
2022-09-07T09:22:31.789Z,346.57
2022-09-07T09:23:31.781Z,405.54
2022-09-07T09:24:31.161Z,225.1
2022-09-07T09:25:31.833Z,339.61
2022-09-07T09:26:31.761Z,398.2
2022-09-07T09:27:31.743Z,137.87
2022-09-07T09:28:32.448Z,104.1
2022-09-07T09:29:31.778Z,71.93
2022-09-07T09:30:31.758Z,480.66
2022-09-07T09:31:31.878Z,433.31
2022-09-07T09:32:31.206Z,252.01
2022-09-07T09:33:31.787Z,376.55
2022-09-07T09:34:35.037Z,450.69
2022-09-07T09:35:31.758Z,412.03
2022-09-07T09:36:31.109Z,324.44
2022-09-07T09:37:31.769Z,432.45
2022-09-07T09:38:32.064Z,268.9
2022-09-07T09:39:31.878Z,298.01
2022-09-07T09:40:31.331Z,93.58
2022-09-07T09:41:31.781Z,68.51
2022-09-07T09:42:31.756Z,70.71
2022-09-07T09:43:31.908Z,156.95
2022-09-07T09:44:31.128Z,181.3
2022-09-07T09:46:12.244Z,410.32
2022-09-07T09:46:31.906Z,314.03
2022-09-07T09:47:32.078Z,538.28
2022-09-07T09:48:31.304Z,157.44
2022-09-07T09:49:31.761Z,321.01
2022-09-07T09:52:34.781Z,161.36
2022-09-07T09:53:31.765Z,48.07
2022-09-07T09:54:31.776Z,560.91
2022-09-07T09:55:34.860Z,54.19
2022-09-07T09:56:31.141Z,152.19
2022-09-07T09:57:31.752Z,170.41
2022-09-07T09:59:58.517Z,82.82
2022-09-07T10:00:31.721Z,53.34
2022-09-07T10:01:32.083Z,47.22
2022-09-07T10:03:57.659Z,43.8
2022-09-07T10:04:31.188Z,45.02
2022-09-07T10:05:31.774Z,43.8
2022-09-07T10:06:31.780Z,59.33
2022-09-07T10:07:31.779Z,44.65
2022-09-07T10:08:31.179Z,211.64
2022-09-07T10:09:35.796Z,72.42
2022-09-07T10:10:31.777Z,68.87
2022-09-07T10:12:04.959Z,83.68
2022-09-07T10:12:31.111Z,72.79
2022-09-07T10:13:31.808Z,105.82
2022-09-07T10:14:31.807Z,94.56
2022-09-07T10:15:33.664Z,112.67
2022-09-07T10:16:31.127Z,68.02
2022-09-07T10:17:31.739Z,85.39
2022-09-07T10:18:31.893Z,45.51
2022-09-07T10:19:31.772Z,78.9
2022-09-07T10:20:31.802Z,51.99
2022-09-07T10:21:31.767Z,51.14
2022-09-07T10:22:31.768Z,98.85
2022-09-07T10:23:31.769Z,42.45
2022-09-07T10:24:31.732Z,41.59
2022-09-07T10:25:31.791Z,49.42
2022-09-07T10:26:31.759Z,43.8
2022-09-07T10:27:31.767Z,42.94
2022-09-07T10:29:06.401Z,41.59
2022-09-07T10:29:31.829Z,73.65
2022-09-07T10:30:31.799Z,58.97
2022-09-07T10:31:32.024Z,75.48
2022-09-07T10:32:31.019Z,43.31
2022-09-07T10:33:31.928Z,44.65
2022-09-07T10:34:31.774Z,46.36
2022-09-07T10:35:31.772Z,83.19
2022-09-07T10:36:31.753Z,55.05
2022-09-07T10:37:31.747Z,62.88
2022-09-07T10:38:31.916Z,48.07
2022-09-07T10:39:31.826Z,52.85
2022-09-07T10:40:31.774Z,52.48
2022-09-07T10:41:31.828Z,89.79
2022-09-07T10:42:31.767Z,71.56
2022-09-07T10:43:31.780Z,64.1
2022-09-07T10:44:31.735Z,74.99
2022-09-07T10:45:31.755Z,70.71
2022-09-07T10:46:57.572Z,64.59
2022-09-07T10:47:31.839Z,76.7
2022-09-07T10:48:31.999Z,85.02
2022-09-07T10:49:31.760Z,99.7
2022-09-07T10:50:31.782Z,113.16
2022-09-07T10:51:31.909Z,119.64
2022-09-07T10:52:31.763Z,127.1
2022-09-07T10:53:40.570Z,135.67
2022-09-07T10:54:32.090Z,127.47
2022-09-07T10:55:31.760Z,128.82
2022-09-07T10:56:31.737Z,134.81
2022-09-07T10:57:31.768Z,139.22
2022-09-07T10:59:01.447Z,141.78
2022-09-07T11:00:31.785Z,147.9
2022-09-07T11:01:31.809Z,147.41
2022-09-07T11:02:31.791Z,142.27
2022-09-07T11:03:31.754Z,135.67
2022-09-07T11:04:31.814Z,133.59
2022-09-07T11:05:36.086Z,137.51
2022-09-07T11:06:31.782Z,139.22
2022-09-07T11:07:31.751Z,136.16
2022-09-07T11:08:31.978Z,134.44
2022-09-07T11:09:31.791Z,136.16
2022-09-07T11:10:31.737Z,139.58
2022-09-07T11:12:01.319Z,154.39
2022-09-07T11:12:31.807Z,158.3
2022-09-07T11:13:31.774Z,156.95
2022-09-07T11:14:31.812Z,148.27
2022-09-07T11:15:31.833Z,148.27
2022-09-07T11:16:51.607Z,147.41
2022-09-07T11:17:31.840Z,150.47
2022-09-07T11:18:31.924Z,152.68
2022-09-07T11:19:35.930Z,155.24
2022-09-07T11:20:31.724Z,152.68
2022-09-07T11:22:31.892Z,149.12
2022-09-07T11:23:31.786Z,146.56
2022-09-07T11:24:31.766Z,148.76
2022-09-07T11:25:31.952Z,153.9
2022-09-07T11:26:31.762Z,150.47
2022-09-07T11:27:31.785Z,142.64
2022-09-07T11:28:31.860Z,143.13
2022-09-07T11:29:31.750Z,148.76
2022-09-07T11:30:31.778Z,139.58
2022-09-07T11:31:31.857Z,127.96
2022-09-07T11:32:31.738Z,133.1
2022-09-07T11:33:31.743Z,134.81
2022-09-07T11:34:31.760Z,126.61
2022-09-07T11:35:31.754Z,124.9
2022-09-07T11:36:31.713Z,123.19
2022-09-07T11:37:31.736Z,122.7
2022-09-07T11:38:31.865Z,126.61
2022-09-07T11:39:31.898Z,125.76
2022-09-07T11:40:31.724Z,176.04
2022-09-07T11:41:31.753Z,172.12
2022-09-07T11:42:44.353Z,142.64
2022-09-07T11:43:31.765Z,130.9
2022-09-07T11:44:31.738Z,137.51
2022-09-07T11:45:31.730Z,133.95
2022-09-07T11:46:31.861Z,138.73
2022-09-07T11:47:31.758Z,134.44
2022-09-07T11:48:32.165Z,160.87
2022-09-07T11:49:31.907Z,143.13
2022-09-07T11:50:31.928Z,153.04
2022-09-07T11:51:31.751Z,220.69
2022-09-07T11:52:31.745Z,87.96
2022-09-07T11:53:31.745Z,149.98
2022-09-07T11:54:31.773Z,145.21
2022-09-07T11:55:31.755Z,75.85
2022-09-07T11:56:36.247Z,56.76
2022-09-07T11:57:31.763Z,51.5
2022-09-07T11:58:31.914Z,44.65
2022-09-07T11:59:36.638Z,45.51
2022-09-07T12:00:31.736Z,47.71
2022-09-07T12:01:31.764Z,51.14
2022-09-07T12:02:55.371Z,55.41
2022-09-07T12:03:31.943Z,51.14
2022-09-07T12:04:31.845Z,45.87
2022-09-07T12:05:31.753Z,46.36
2022-09-07T12:06:31.781Z,48.07
2022-09-07T12:07:31.730Z,55.9
2022-09-07T12:08:31.863Z,95.42
2022-09-07T12:09:31.902Z,87.59
2022-09-07T12:10:31.742Z,100.19
2022-09-07T12:11:31.728Z,122.34
2022-09-07T12:12:31.834Z,135.67
2022-09-07T12:13:31.853Z,120.99
2022-09-07T12:14:31.784Z,134.44
2022-09-07T12:15:31.818Z,133.1
2022-09-07T12:16:31.787Z,128.82
2022-09-07T12:17:31.758Z,132.24
2022-09-07T12:18:32.029Z,115.36
2022-09-07T12:19:31.750Z,105.82
2022-09-07T12:20:31.729Z,117.93
2022-09-07T12:21:31.779Z,98.36
2022-09-07T12:22:31.756Z,92.36
2022-09-07T12:23:31.757Z,88.45
2022-09-07T12:24:31.751Z,83.19
2022-09-07T12:25:31.752Z,77.19
2022-09-07T12:26:31.851Z,71.07
2022-09-07T12:27:31.730Z,68.51
2022-09-07T12:28:31.747Z,71.07
2022-09-07T12:29:31.767Z,70.22
2022-09-07T12:30:31.790Z,77.19
2022-09-07T12:31:39.141Z,86.24
2022-09-07T12:32:55.411Z,91.51
2022-09-07T12:33:31.816Z,94.07
2022-09-07T12:34:31.753Z,99.34
2022-09-07T12:35:31.763Z,101.9
2022-09-07T12:36:31.744Z,108.88
2022-09-07T12:37:31.829Z,159.53
2022-09-07T12:38:31.874Z,126.61
2022-09-07T12:39:31.755Z,123.19
2022-09-07T12:40:31.741Z,118.42
2022-09-07T12:41:31.750Z,116.58
2022-09-07T12:42:32.483Z,118.78
2022-09-07T12:43:31.773Z,116.22
2022-09-07T12:44:31.721Z,118.78
2022-09-07T12:45:31.892Z,105.33
2022-09-07T12:46:34.390Z,97.5
2022-09-07T12:47:31.738Z,88.45
2022-09-07T12:48:31.812Z,90.16
2022-09-07T12:49:31.750Z,96.65
2022-09-07T12:50:31.724Z,101.41
2022-09-07T12:52:03.288Z,104.48
2022-09-07T12:52:31.816Z,104.48
2022-09-07T12:53:31.831Z,104.1
2022-09-07T12:54:31.783Z,102.76
2022-09-07T12:55:31.956Z,101.41
2022-09-07T12:56:31.823Z,100.19
2022-09-07T12:57:31.745Z,100.56
2022-09-07T12:58:31.820Z,102.27
2022-09-07T12:59:31.714Z,101.9
2022-09-07T13:00:31.726Z,102.76
2022-09-07T13:01:31.802Z,105.82
2022-09-07T13:02:31.865Z,100.56
2022-09-07T13:03:51.949Z,94.07
2022-09-07T13:04:31.797Z,89.31
2022-09-07T13:05:31.707Z,85.39
2022-09-07T13:07:01.841Z,81.97
2022-09-07T13:07:31.809Z,81.97
2022-09-07T13:08:31.732Z,77.56
2022-09-07T13:09:31.735Z,70.71
2022-09-07T13:10:31.737Z,61.53
2022-09-07T13:11:31.769Z,53.7
2022-09-07T13:12:53.698Z,47.71
2022-09-07T13:14:33.921Z,41.1
2022-09-07T13:15:31.914Z,42.94
2022-09-07T13:16:32.203Z,46.36
2022-09-07T13:17:32.987Z,48.07
2022-09-07T13:18:32.163Z,54.56
2022-09-07T13:19:31.781Z,62.39
2022-09-07T13:20:35.014Z,69.73
2022-09-07T13:21:31.730Z,74.5
2022-09-07T13:22:31.770Z,81.1
2022-09-07T13:23:32.028Z,83.19
2022-09-07T13:24:49.373Z,84.53
2022-09-07T13:25:31.906Z,85.88
2022-09-07T13:26:31.758Z,81.97
2022-09-07T13:27:31.837Z,74.5
2022-09-07T13:28:31.721Z,72.42
2022-09-07T13:29:31.791Z,73.28
2022-09-07T13:30:31.910Z,71.93
2022-09-07T13:31:31.741Z,66.31
2022-09-07T13:33:31.997Z,54.56
2022-09-07T13:34:31.734Z,50.28